Time;durP1;ratioP1;P1;durP2;ratioP2;P2;SDS_P1;SDS_P2;PMS_P1;PMS_P2;Temp;Humidity;BMP_temperature;BMP_pressure;BME280_temperature;BME280_humidity;BME280_pressure;Samples;Min_cycle;Max_cycle;Signal;HPM_P1;HPM_P2
2023/12/03 00:00:08;;;;;;;39.88;16.85;;;-0.60;95.50;;;;;;5098157;28;20028;-76
2023/12/03 00:02:35;;;;;;;33.90;14.43;;;-0.60;95.60;;;;;;5092467;28;20415;-75
2023/12/03 00:05:02;;;;;;;34.88;15.25;;;-0.50;94.40;;;;;;5092852;28;20044;-75
2023/12/03 00:07:28;;;;;;;39.08;15.02;;;-0.50;94.30;;;;;;5092489;28;20038;-75
2023/12/03 00:09:55;;;;;;;34.95;15.07;;;-0.50;94.70;;;;;;5090849;28;20068;-75
2023/12/03 00:12:21;;;;;;;34.03;14.63;;;-0.50;95.10;;;;;;5091826;28;20031;-75
2023/12/03 00:14:47;;;;;;;32.67;13.60;;;-0.40;94.70;;;;;;5084772;28;20032;-75
2023/12/03 00:17:12;;;;;;;29.65;13.07;;;-0.50;94.00;;;;;;5086504;28;20069;-75
2023/12/03 00:19:39;;;;;;;28.52;12.70;;;-0.40;93.40;;;;;;5087748;28;20501;-75
2023/12/03 00:22:05;;;;;;;33.10;13.30;;;-0.50;94.00;;;;;;5085437;28;20137;-76
2023/12/03 00:24:31;;;;;;;29.17;13.13;;;-0.50;94.70;;;;;;5086538;28;20057;-76
2023/12/03 00:26:59;;;;;;;31.15;13.20;;;-0.50;94.60;;;;;;5092260;28;20036;-76
2023/12/03 00:29:25;;;;;;;33.25;13.65;;;-0.50;94.70;;;;;;5095287;28;20024;-77
2023/12/03 00:31:51;;;;;;;34.00;15.15;;;-0.50;95.30;;;;;;5088056;28;20034;-77
2023/12/03 00:34:17;;;;;;;46.03;18.38;;;-0.50;95.30;;;;;;5079969;28;20043;-76
2023/12/03 00:36:43;;;;;;;52.17;20.23;;;-0.40;95.40;;;;;;5090847;28;20482;-76
2023/12/03 00:39:09;;;;;;;38.50;15.63;;;-0.50;95.20;;;;;;5085221;28;20565;-76
2023/12/03 00:41:34;;;;;;;28.48;12.63;;;-0.40;94.90;;;;;;5084006;28;20028;-76
2023/12/03 00:44:00;;;;;;;32.10;14.35;;;-0.40;95.00;;;;;;5087566;28;20123;-75
2023/12/03 00:46:26;;;;;;;32.33;13.48;;;-0.50;95.40;;;;;;5092739;28;20101;-75
2023/12/03 00:48:52;;;;;;;35.28;14.02;;;-0.40;95.50;;;;;;5091375;28;20086;-77
2023/12/03 00:51:18;;;;;;;36.28;14.82;;;-0.40;95.10;;;;;;5090365;28;20387;-77
2023/12/03 00:53:44;;;;;;;29.38;12.23;;;-0.40;95.00;;;;;;5093530;27;20023;-77
2023/12/03 00:56:10;;;;;;;24.50;11.90;;;-0.40;95.30;;;;;;5094704;28;20051;-77
2023/12/03 00:58:36;;;;;;;25.02;10.98;;;-0.30;94.80;;;;;;5092473;28;20144;-77
2023/12/03 01:01:02;;;;;;;24.30;11.45;;;-0.30;94.90;;;;;;5081651;28;20550;-75
2023/12/03 01:03:28;;;;;;;23.83;10.43;;;-0.20;95.10;;;;;;5088564;28;20042;-76
2023/12/03 01:05:53;;;;;;;27.02;11.45;;;-0.20;94.40;;;;;;5093161;28;20020;-75
2023/12/03 01:08:19;;;;;;;23.50;10.32;;;-0.10;94.90;;;;;;5092693;28;20543;-75
2023/12/03 01:10:45;;;;;;;20.60;9.75;;;-0.10;94.80;;;;;;5097860;28;20091;-75
2023/12/03 01:13:11;;;;;;;26.35;11.02;;;0.00;95.00;;;;;;5094917;28;20036;-76
2023/12/03 01:15:36;;;;;;;25.17;11.43;;;0.10;94.90;;;;;;5094287;28;20035;-76
2023/12/03 01:18:02;;;;;;;23.40;10.43;;;0.10;94.80;;;;;;5089276;28;21702;-75
2023/12/03 01:20:27;;;;;;;25.50;11.57;;;0.20;94.80;;;;;;5089984;28;20036;-76
2023/12/03 01:22:54;;;;;;;26.38;11.77;;;0.10;94.60;;;;;;5088307;28;20035;-75
2023/12/03 01:25:20;;;;;;;23.45;11.77;;;0.10;94.70;;;;;;5091732;28;20035;-75
2023/12/03 01:27:45;;;;;;;24.77;11.20;;;0.20;94.70;;;;;;5085937;28;20027;-77
2023/12/03 01:30:11;;;;;;;25.17;11.40;;;0.30;94.80;;;;;;5090370;28;20046;-77
2023/12/03 01:32:37;;;;;;;25.48;11.43;;;0.30;94.70;;;;;;5095464;28;20028;-77
2023/12/03 01:35:04;;;;;;;27.58;11.27;;;0.40;94.50;;;;;;5093814;28;20035;-77
2023/12/03 01:37:30;;;;;;;29.13;11.57;;;0.50;94.30;;;;;;5095031;28;20024;-77
2023/12/03 01:39:55;;;;;;;28.80;12.93;;;0.50;94.50;;;;;;5089187;28;20530;-77
2023/12/03 01:42:22;;;;;;;28.15;12.63;;;0.40;94.40;;;;;;5089594;28;20118;-77
2023/12/03 01:44:48;;;;;;;29.85;12.45;;;0.30;94.70;;;;;;5089322;28;20039;-77
2023/12/03 01:47:14;;;;;;;29.35;12.48;;;0.30;94.70;;;;;;5089045;28;20506;-76
2023/12/03 01:49:40;;;;;;;25.98;11.35;;;0.40;94.80;;;;;;5091040;28;20036;-77
2023/12/03 01:52:06;;;;;;;25.85;12.52;;;0.50;94.70;;;;;;5095627;28;20508;-76
2023/12/03 01:54:35;;;;;;;27.48;13.10;;;0.50;95.00;;;;;;5093501;28;20530;-77
2023/12/03 01:57:01;;;;;;;29.02;12.43;;;0.40;94.70;;;;;;5089518;28;20031;-77
2023/12/03 01:59:27;;;;;;;21.38;11.88;;;0.40;94.80;;;;;;5092929;28;20024;-77
2023/12/03 02:01:53;;;;;;;27.08;11.82;;;0.40;94.90;;;;;;5084867;28;20092;-77
2023/12/03 02:04:18;;;;;;;28.90;12.00;;;0.30;94.80;;;;;;5087471;28;20042;-77
2023/12/03 02:06:44;;;;;;;26.85;11.93;;;0.40;95.00;;;;;;5092842;28;20031;-76
2023/12/03 02:09:10;;;;;;;23.23;11.35;;;0.40;95.00;;;;;;5094161;28;20479;-77
2023/12/03 02:11:36;;;;;;;28.20;12.00;;;0.50;94.80;;;;;;5095050;28;20028;-77
2023/12/03 02:14:03;;;;;;;23.38;11.05;;;0.60;95.00;;;;;;5090220;28;20157;-77
2023/12/03 02:16:32;;;;;;;23.33;11.40;;;0.60;94.80;;;;;;5090359;28;20062;-77
2023/12/03 02:18:58;;;;;;;27.95;12.23;;;0.70;94.60;;;;;;5082053;28;20118;-76
2023/12/03 02:21:23;;;;;;;26.52;11.98;;;0.70;94.80;;;;;;5089158;28;20115;-77
2023/12/03 02:23:49;;;;;;;24.90;11.85;;;0.80;94.60;;;;;;5085799;28;20484;-77
2023/12/03 02:26:15;;;;;;;24.95;12.18;;;0.80;94.90;;;;;;5093192;28;20035;-75
2023/12/03 02:28:41;;;;;;;27.55;12.02;;;0.80;94.90;;;;;;5074667;28;20073;-76
2023/12/03 02:31:07;;;;;;;24.20;12.00;;;0.80;94.90;;;;;;5079182;28;20042;-76
2023/12/03 02:33:32;;;;;;;27.38;12.25;;;0.90;94.90;;;;;;5087678;28;20022;-76
2023/12/03 02:36:00;;;;;;;28.65;12.75;;;0.90;94.50;;;;;;5090863;28;20062;-76
2023/12/03 02:38:25;;;;;;;22.67;10.90;;;0.90;94.40;;;;;;5098530;28;20487;-76
2023/12/03 02:40:51;;;;;;;29.80;13.07;;;0.90;94.70;;;;;;5094572;28;20077;-76
2023/12/03 02:43:17;;;;;;;31.02;13.30;;;0.90;94.50;;;;;;5090957;28;20399;-75
2023/12/03 02:45:43;;;;;;;27.40;12.82;;;0.90;94.60;;;;;;5092700;28;20055;-75
2023/12/03 02:48:08;;;;;;;26.15;12.02;;;1.00;95.00;;;;;;5095712;28;20050;-75
2023/12/03 02:50:34;;;;;;;26.08;12.00;;;1.00;94.70;;;;;;5093572;28;20035;-75
2023/12/03 02:52:59;;;;;;;22.48;11.95;;;1.00;94.70;;;;;;5091304;28;20031;-75
2023/12/03 02:55:25;;;;;;;26.95;12.00;;;1.00;94.80;;;;;;5095062;28;20505;-76
2023/12/03 02:57:51;;;;;;;23.85;11.93;;;1.10;94.80;;;;;;5094753;28;20583;-77
2023/12/03 03:00:16;;;;;;;24.98;12.82;;;1.10;94.80;;;;;;5089192;28;20043;-76
2023/12/03 03:02:42;;;;;;;24.70;12.43;;;1.20;94.70;;;;;;5089881;28;20024;-75
2023/12/03 03:05:08;;;;;;;29.38;12.18;;;1.10;94.80;;;;;;5097613;28;20081;-75
2023/12/03 03:07:34;;;;;;;30.65;12.32;;;1.10;95.00;;;;;;5096973;28;20501;-75
2023/12/03 03:09:59;;;;;;;22.50;11.68;;;1.00;95.40;;;;;;5093446;28;20032;-75
2023/12/03 03:12:25;;;;;;;22.77;9.05;;;1.20;95.50;;;;;;5098489;28;20032;-75
2023/12/03 03:14:50;;;;;;;10.20;3.88;;;1.20;95.40;;;;;;5100636;28;20065;-76
2023/12/03 03:17:16;;;;;;;10.20;4.78;;;1.60;95.90;;;;;;5102165;28;20087;-76
2023/12/03 03:19:43;;;;;;;8.20;3.30;;;2.10;95.10;;;;;;5103396;28;20035;-77
2023/12/03 03:22:12;;;;;;;4.82;2.20;;;2.50;94.20;;;;;;5091440;28;20447;-75
2023/12/03 03:24:38;;;;;;;6.78;2.60;;;2.90;93.20;;;;;;5089944;28;20773;-76
2023/12/03 03:27:04;;;;;;;5.35;2.40;;;3.20;92.30;;;;;;5091226;28;20043;-75
2023/12/03 03:29:29;;;;;;;8.07;2.85;;;3.60;91.50;;;;;;5087857;28;20165;-74
2023/12/03 03:31:55;;;;;;;5.72;2.30;;;3.80;90.80;;;;;;5086709;28;20115;-75
2023/12/03 03:34:20;;;;;;;7.05;2.03;;;3.90;90.00;;;;;;5093337;28;20024;-75
2023/12/03 03:36:46;;;;;;;5.95;2.05;;;4.20;87.60;;;;;;5085327;28;20589;-75
2023/12/03 03:39:12;;;;;;;5.28;2.17;;;4.40;87.30;;;;;;5096475;28;20610;-76
2023/12/03 03:41:37;;;;;;;6.68;2.00;;;4.50;86.00;;;;;;5092907;28;20024;-76
2023/12/03 03:44:03;;;;;;;6.07;2.33;;;4.60;87.10;;;;;;5090545;28;20039;-76
2023/12/03 03:46:29;;;;;;;3.50;1.70;;;4.60;87.80;;;;;;5089824;28;20075;-76
2023/12/03 03:48:54;;;;;;;7.15;2.05;;;4.70;90.20;;;;;;5095702;28;20402;-76
2023/12/03 03:51:20;;;;;;;5.93;2.17;;;4.60;90.80;;;;;;5098051;28;20526;-76
2023/12/03 03:53:45;;;;;;;4.38;2.03;;;4.40;91.90;;;;;;5097359;28;20050;-76
2023/12/03 03:56:12;;;;;;;5.57;1.88;;;4.40;92.30;;;;;;5092849;28;20045;-76
2023/12/03 03:58:37;;;;;;;5.60;2.50;;;4.30;92.50;;;;;;5093674;28;20024;-76
2023/12/03 04:01:04;;;;;;;7.38;2.15;;;4.20;92.80;;;;;;5092357;28;20035;-76
2023/12/03 04:03:30;;;;;;;6.85;2.42;;;4.10;93.60;;;;;;5090151;28;20447;-76
2023/12/03 04:05:59;;;;;;;4.05;2.03;;;4.10;94.00;;;;;;5093443;28;20027;-76
2023/12/03 04:08:24;;;;;;;5.03;2.00;;;4.00;94.80;;;;;;5092312;28;20032;-76
2023/12/03 04:10:50;;;;;;;6.78;2.33;;;4.00;94.90;;;;;;5092850;28;20061;-77
2023/12/03 04:13:15;;;;;;;10.05;2.42;;;3.90;95.60;;;;;;5092017;28;20368;-76
2023/12/03 04:15:41;;;;;;;6.70;2.90;;;3.90;96.00;;;;;;5087587;28;20032;-76
2023/12/03 04:18:06;;;;;;;8.13;2.60;;;3.80;96.20;;;;;;5090543;28;20028;-75
2023/12/03 04:20:32;;;;;;;7.90;2.75;;;3.80;96.50;;;;;;5095061;28;20040;-75
2023/12/03 04:22:58;;;;;;;7.18;3.05;;;3.80;96.90;;;;;;5097025;28;20031;-75
2023/12/03 04:25:23;;;;;;;6.30;2.72;;;3.70;97.20;;;;;;5092679;28;20024;-75
2023/12/03 04:27:49;;;;;;;5.75;2.33;;;3.70;97.40;;;;;;5092588;28;20444;-76
2023/12/03 04:30:15;;;;;;;6.03;2.45;;;3.70;97.60;;;;;;5089459;28;20674;-77
2023/12/03 04:32:40;;;;;;;7.97;3.17;;;3.70;97.60;;;;;;5096452;28;20080;-75
2023/12/03 04:35:10;;;;;;;10.27;3.30;;;3.70;97.80;;;;;;5091015;28;20030;-76
2023/12/03 04:37:35;;;;;;;7.95;3.38;;;3.70;98.10;;;;;;5091364;28;20047;-76
2023/12/03 04:40:01;;;;;;;7.80;3.30;;;3.80;98.30;;;;;;5088616;28;21003;-76
2023/12/03 04:42:27;;;;;;;9.70;3.17;;;3.80;98.40;;;;;;5088000;28;20028;-77
2023/12/03 04:44:52;;;;;;;7.65;3.40;;;3.80;98.40;;;;;;5083006;28;20119;-76
2023/12/03 04:47:18;;;;;;;6.22;3.08;;;3.90;98.70;;;;;;5092872;28;20042;-77
2023/12/03 04:49:43;;;;;;;7.40;3.38;;;3.80;98.60;;;;;;5092675;28;20031;-77
2023/12/03 04:52:09;;;;;;;7.05;2.83;;;3.80;98.80;;;;;;5093068;28;20024;-74
2023/12/03 04:54:35;;;;;;;8.43;3.45;;;3.90;99.00;;;;;;5086843;28;21038;-76
2023/12/03 04:57:01;;;;;;;9.07;3.30;;;3.90;99.10;;;;;;5078163;28;20027;-76
2023/12/03 04:59:26;;;;;;;9.60;3.63;;;3.90;99.20;;;;;;5086193;28;20036;-77
2023/12/03 05:01:52;;;;;;;8.50;3.00;;;3.90;99.40;;;;;;5090624;28;20031;-76
2023/12/03 05:04:17;;;;;;;8.65;3.80;;;3.90;99.60;;;;;;5092396;28;20032;-76
2023/12/03 05:06:43;;;;;;;7.63;3.33;;;4.00;99.90;;;;;;5086821;28;20044;-76
2023/12/03 05:09:09;;;;;;;10.20;3.95;;;4.00;99.80;;;;;;5095510;28;20111;-76
2023/12/03 05:11:40;;;;;;;9.95;3.33;;;4.00;99.90;;;;;;5093824;28;20035;-76
2023/12/03 05:14:05;;;;;;;10.48;3.42;;;4.00;99.90;;;;;;5091146;28;20875;-76
2023/12/03 05:16:31;;;;;;;8.45;3.33;;;4.10;99.90;;;;;;5092942;28;20375;-77
2023/12/03 05:18:56;;;;;;;12.63;4.20;;;4.10;99.90;;;;;;5089166;28;20116;-76
2023/12/03 05:21:22;;;;;;;13.65;3.88;;;4.20;99.90;;;;;;5092091;28;20085;-76
2023/12/03 05:23:48;;;;;;;8.43;3.58;;;4.20;99.90;;;;;;5099516;28;20112;-76
2023/12/03 05:26:13;;;;;;;10.07;4.13;;;4.20;99.90;;;;;;5095509;28;20138;-76
2023/12/03 05:28:39;;;;;;;16.35;4.70;;;4.30;99.90;;;;;;5083684;28;20361;-75
2023/12/03 05:31:05;;;;;;;11.40;4.00;;;4.30;99.90;;;;;;5089385;28;20012;-76
2023/12/03 05:33:31;;;;;;;12.18;4.57;;;4.30;99.90;;;;;;5090518;28;20502;-76
2023/12/03 05:35:56;;;;;;;9.27;4.22;;;4.30;99.90;;;;;;5091867;28;20134;-77
2023/12/03 05:38:22;;;;;;;14.40;4.25;;;4.30;99.90;;;;;;5096764;28;20024;-76
2023/12/03 05:40:47;;;;;;;13.07;4.60;;;4.40;99.90;;;;;;5086200;28;20031;-77
2023/12/03 05:43:14;;;;;;;14.95;4.80;;;4.40;99.90;;;;;;5093528;28;20479;-77
2023/12/03 05:45:40;;;;;;;16.77;4.85;;;4.40;99.90;;;;;;5095714;28;20036;-78
2023/12/03 05:48:06;;;;;;;12.13;4.80;;;4.50;99.90;;;;;;5094694;28;20084;-77
2023/12/03 05:50:32;;;;;;;15.05;5.30;;;4.60;99.90;;;;;;5096054;28;20483;-77
2023/12/03 05:52:58;;;;;;;14.90;5.00;;;4.60;99.90;;;;;;5097810;28;20085;-77
2023/12/03 05:55:24;;;;;;;17.45;5.03;;;4.60;99.90;;;;;;5094773;28;20020;-77
2023/12/03 05:57:49;;;;;;;13.30;6.10;;;4.70;99.90;;;;;;5102452;28;20743;-76
2023/12/03 06:00:16;;;;;;;14.60;4.68;;;4.70;99.90;;;;;;5108436;28;20268;-77
2023/12/03 06:02:42;;;;;;;11.48;4.55;;;4.80;99.90;;;;;;5102419;28;20244;-77
2023/12/03 06:05:08;;;;;;;11.52;4.25;;;4.80;99.90;;;;;;5092543;28;20494;-76
2023/12/03 06:07:34;;;;;;;15.35;4.90;;;4.80;99.90;;;;;;5100427;28;20031;-77
2023/12/03 06:10:00;;;;;;;20.75;4.35;;;4.80;99.90;;;;;;5099220;28;20468;-77
2023/12/03 06:12:25;;;;;;;13.40;4.32;;;4.90;99.90;;;;;;5100910;28;20473;-76
2023/12/03 06:14:51;;;;;;;12.85;3.55;;;4.90;99.90;;;;;;5095272;28;20028;-76
2023/12/03 06:17:17;;;;;;;12.52;3.70;;;4.90;99.90;;;;;;5094282;28;20062;-76
2023/12/03 06:19:44;;;;;;;15.18;3.75;;;5.00;99.90;;;;;;5092513;28;20032;-76
2023/12/03 06:22:09;;;;;;;11.90;4.30;;;5.00;99.90;;;;;;5099332;28;20119;-76
2023/12/03 06:24:35;;;;;;;13.63;3.42;;;5.00;99.90;;;;;;5095077;28;20111;-76
2023/12/03 06:27:01;;;;;;;11.15;3.88;;;5.00;99.90;;;;;;5094106;28;20024;-77
2023/12/03 06:29:26;;;;;;;10.73;3.75;;;5.00;99.90;;;;;;5097749;28;20412;-77
2023/12/03 06:31:52;;;;;;;12.13;3.42;;;5.00;99.90;;;;;;5094569;28;20133;-77
2023/12/03 06:34:18;;;;;;;13.93;4.45;;;5.00;99.90;;;;;;5098533;28;20019;-77
2023/12/03 06:36:43;;;;;;;15.35;4.55;;;5.00;99.90;;;;;;5097206;28;20615;-77
2023/12/03 06:39:09;;;;;;;11.82;4.20;;;5.10;99.90;;;;;;5091382;28;20034;-77
2023/12/03 06:41:35;;;;;;;9.43;3.40;;;5.10;99.90;;;;;;5094083;28;20114;-76
2023/12/03 06:44:01;;;;;;;13.95;4.60;;;5.10;99.90;;;;;;5097397;28;20113;-76
2023/12/03 06:46:26;;;;;;;16.67;4.28;;;5.10;99.90;;;;;;5092937;28;20138;-76
2023/12/03 06:48:52;;;;;;;14.55;4.47;;;5.10;99.90;;;;;;5089996;28;20024;-77
2023/12/03 06:51:17;;;;;;;16.10;4.40;;;5.10;99.90;;;;;;5095005;28;20044;-76
2023/12/03 06:53:43;;;;;;;12.60;4.07;;;5.10;99.90;;;;;;5097425;28;20028;-77
2023/12/03 06:56:10;;;;;;;12.05;4.93;;;5.10;99.90;;;;;;5090583;28;20028;-76
2023/12/03 06:58:36;;;;;;;18.95;5.10;;;5.20;99.90;;;;;;5089478;28;20039;-76
2023/12/03 07:01:02;;;;;;;13.98;4.22;;;5.20;99.90;;;;;;5095544;28;20027;-77
2023/12/03 07:03:27;;;;;;;15.48;4.80;;;5.20;99.90;;;;;;5097136;28;20059;-76
2023/12/03 07:05:54;;;;;;;15.25;4.40;;;5.20;99.90;;;;;;5096694;28;20066;-74
2023/12/03 07:08:20;;;;;;;18.60;5.20;;;5.20;99.90;;;;;;5099420;28;20129;-77
2023/12/03 07:10:46;;;;;;;16.35;4.50;;;5.20;99.90;;;;;;5091956;28;20027;-77
2023/12/03 07:13:12;;;;;;;21.60;4.78;;;5.20;99.90;;;;;;5094067;28;20038;-77
2023/12/03 07:15:37;;;;;;;17.70;4.90;;;5.30;99.90;;;;;;5096575;28;20450;-77
2023/12/03 07:18:03;;;;;;;17.50;4.55;;;5.30;99.90;;;;;;5089905;28;20063;-77
2023/12/03 07:20:29;;;;;;;12.35;4.43;;;5.30;99.90;;;;;;5099098;28;20035;-77
2023/12/03 07:22:55;;;;;;;19.50;5.35;;;5.30;99.90;;;;;;5097637;28;20119;-77
2023/12/03 07:25:22;;;;;;;17.50;5.13;;;5.30;99.90;;;;;;5094961;28;20039;-77
2023/12/03 07:27:47;;;;;;;18.95;5.32;;;5.30;99.90;;;;;;5089987;28;20028;-77
2023/12/03 07:30:13;;;;;;;19.58;5.90;;;5.40;99.90;;;;;;5089607;28;20029;-77
2023/12/03 07:32:39;;;;;;;16.20;4.85;;;5.40;99.90;;;;;;5096782;28;20032;-77
2023/12/03 07:35:05;;;;;;;17.33;5.75;;;5.40;99.90;;;;;;5097610;28;20015;-77
2023/12/03 07:37:30;;;;;;;19.73;6.00;;;5.40;99.90;;;;;;5094506;28;20035;-78
2023/12/03 07:39:56;;;;;;;17.02;5.22;;;5.40;99.90;;;;;;5091882;28;20036;-76
2023/12/03 07:42:21;;;;;;;20.63;5.15;;;5.50;99.90;;;;;;5089953;28;20471;-77
2023/12/03 07:44:47;;;;;;;17.05;5.38;;;5.50;99.90;;;;;;5093358;28;20047;-77
2023/12/03 07:47:13;;;;;;;15.75;5.38;;;5.40;99.90;;;;;;5092041;28;20020;-77
2023/12/03 07:49:38;;;;;;;20.35;6.30;;;5.40;99.90;;;;;;5096579;28;20529;-77
2023/12/03 07:52:04;;;;;;;22.25;6.32;;;5.40;99.90;;;;;;5096724;28;20021;-77
2023/12/03 07:54:30;;;;;;;19.98;6.05;;;5.40;99.90;;;;;;5095087;28;20084;-77
2023/12/03 07:56:56;;;;;;;19.52;5.70;;;5.50;99.90;;;;;;5089886;28;20035;-77
2023/12/03 07:59:22;;;;;;;19.10;6.10;;;5.50;99.90;;;;;;5091562;28;20092;-75
2023/12/03 08:01:48;;;;;;;18.42;6.10;;;5.50;99.90;;;;;;5083565;28;20143;-76
2023/12/03 08:04:13;;;;;;;20.25;5.45;;;5.60;99.90;;;;;;5090131;28;20024;-76
2023/12/03 08:06:39;;;;;;;20.38;5.75;;;5.60;99.90;;;;;;5097995;28;20023;-75
2023/12/03 08:09:05;;;;;;;19.25;5.35;;;5.60;99.90;;;;;;5096412;28;20047;-76
2023/12/03 08:11:30;;;;;;;15.63;5.68;;;5.60;99.90;;;;;;5101317;28;20093;-76
2023/12/03 08:13:56;;;;;;;15.88;5.90;;;5.60;99.90;;;;;;5099485;28;20506;-77
2023/12/03 08:16:22;;;;;;;15.10;5.93;;;5.60;99.90;;;;;;5097278;28;20123;-75
2023/12/03 08:18:48;;;;;;;17.67;6.57;;;5.70;99.90;;;;;;5097402;28;20161;-76
2023/12/03 08:21:14;;;;;;;23.33;6.05;;;5.70;99.90;;;;;;5090656;28;20482;-75
2023/12/03 08:23:41;;;;;;;17.35;5.65;;;5.70;99.90;;;;;;5095377;28;20031;-75
2023/12/03 08:26:07;;;;;;;22.52;6.78;;;5.80;99.90;;;;;;5092487;28;20054;-75
2023/12/03 08:28:33;;;;;;;28.30;7.60;;;5.80;99.90;;;;;;5091872;28;20028;-75
2023/12/03 08:31:00;;;;;;;23.23;7.10;;;5.80;99.90;;;;;;5088018;28;20035;-75
2023/12/03 08:33:25;;;;;;;22.45;7.28;;;5.90;99.90;;;;;;5086858;28;20027;-75
2023/12/03 08:35:51;;;;;;;27.67;7.55;;;5.90;99.90;;;;;;5093719;28;20384;-75
2023/12/03 08:38:17;;;;;;;24.00;6.85;;;6.00;99.90;;;;;;5093177;28;20506;-76
2023/12/03 08:40:42;;;;;;;21.65;7.47;;;6.00;99.90;;;;;;5095028;28;20040;-77
2023/12/03 08:43:08;;;;;;;25.58;8.07;;;6.10;99.90;;;;;;5106926;28;20200;-76
2023/12/03 08:45:34;;;;;;;23.75;6.72;;;6.20;99.90;;;;;;5099789;28;20054;-77
2023/12/03 08:48:00;;;;;;;19.33;7.13;;;6.20;99.90;;;;;;5097609;28;20028;-76
2023/12/03 08:50:28;;;;;;;24.35;7.57;;;6.30;99.90;;;;;;5094989;28;20112;-76
2023/12/03 08:52:54;;;;;;;29.45;7.95;;;6.40;99.90;;;;;;5095697;28;20050;-76
2023/12/03 08:55:20;;;;;;;23.02;7.03;;;6.40;99.90;;;;;;5087420;28;20027;-76
2023/12/03 08:57:46;;;;;;;24.05;7.80;;;6.50;99.90;;;;;;5093004;28;20027;-76
2023/12/03 09:00:13;;;;;;;22.08;8.43;;;6.50;99.90;;;;;;5095015;28;20119;-76
2023/12/03 09:02:39;;;;;;;23.73;8.52;;;6.60;99.90;;;;;;5092081;28;20090;-76
2023/12/03 09:05:06;;;;;;;32.67;9.27;;;6.60;99.90;;;;;;5088963;28;20382;-76
2023/12/03 09:07:31;;;;;;;28.58;10.27;;;6.60;99.90;;;;;;5093024;28;20035;-76
2023/12/03 09:09:58;;;;;;;25.20;9.63;;;6.60;99.90;;;;;;5091631;28;20032;-76
2023/12/03 09:12:23;;;;;;;27.20;9.80;;;6.70;99.90;;;;;;5089841;28;20023;-76
2023/12/03 09:14:49;;;;;;;30.52;11.15;;;6.80;99.90;;;;;;5091046;28;20016;-76
2023/12/03 09:17:15;;;;;;;32.25;10.07;;;6.90;99.90;;;;;;5090423;28;20028;-76
2023/12/03 09:19:40;;;;;;;33.42;10.20;;;7.00;99.90;;;;;;5090469;28;20024;-77
2023/12/03 09:22:06;;;;;;;33.05;10.98;;;7.00;99.90;;;;;;5092163;28;20024;-76
2023/12/03 09:24:31;;;;;;;27.20;10.07;;;7.00;99.90;;;;;;5091333;28;20027;-77
2023/12/03 09:26:57;;;;;;;33.38;9.80;;;7.10;99.90;;;;;;5093935;28;20498;-76
2023/12/03 09:29:23;;;;;;;31.08;9.23;;;7.10;99.90;;;;;;5090869;28;20066;-76
2023/12/03 09:31:48;;;;;;;31.67;9.57;;;7.10;99.90;;;;;;5090697;28;20097;-77
2023/12/03 09:34:14;;;;;;;31.55;10.05;;;7.10;99.90;;;;;;5086750;28;20063;-76
2023/12/03 09:36:39;;;;;;;28.05;9.38;;;7.20;99.90;;;;;;5092688;28;20471;-76
2023/12/03 09:39:05;;;;;;;30.30;10.07;;;7.20;99.90;;;;;;5095651;28;20028;-78
2023/12/03 09:41:34;;;;;;;34.63;9.57;;;7.20;99.90;;;;;;5097111;28;20360;-77
2023/12/03 09:44:10;;;;;;;30.88;9.77;;;7.20;99.90;;;;;;5095501;28;21480;-77
2023/12/03 09:46:38;;;;;;;28.02;9.13;;;7.30;99.90;;;;;;5089428;28;20048;-78
2023/12/03 09:49:10;;;;;;;22.98;9.20;;;7.30;99.90;;;;;;5093889;28;20109;-77
2023/12/03 09:51:40;;;;;;;28.38;7.65;;;7.40;99.90;;;;;;5091778;28;20386;-77
2023/12/03 09:54:07;;;;;;;25.75;6.82;;;7.50;99.90;;;;;;5102336;28;20127;-75
2023/12/03 09:56:33;;;;;;;21.63;8.07;;;7.50;99.90;;;;;;5097865;28;20039;-78
2023/12/03 09:58:59;;;;;;;19.98;7.28;;;7.60;99.90;;;;;;5097066;28;20074;-77
2023/12/03 10:01:26;;;;;;;20.80;6.97;;;7.60;99.90;;;;;;5093707;28;20031;-77
2023/12/03 10:03:52;;;;;;;19.23;6.20;;;7.60;99.90;;;;;;5095080;28;20024;-77
2023/12/03 10:06:21;;;;;;;19.33;6.47;;;7.60;99.90;;;;;;5095392;28;20086;-77
2023/12/03 10:08:48;;;;;;;14.30;4.97;;;7.50;99.90;;;;;;5099520;28;20130;-77
2023/12/03 10:11:21;;;;;;;12.30;4.70;;;7.50;99.90;;;;;;5093444;28;20038;-78
2023/12/03 10:13:50;;;;;;;11.48;3.80;;;7.50;99.90;;;;;;5098983;28;20027;-78
2023/12/03 10:16:16;;;;;;;12.95;3.95;;;7.50;99.90;;;;;;5093856;28;20042;-78
2023/12/03 10:18:43;;;;;;;14.48;4.47;;;7.50;99.90;;;;;;5098893;28;20023;-78
2023/12/03 10:21:09;;;;;;;10.73;4.45;;;7.50;99.90;;;;;;5089795;28;20036;-78
2023/12/03 10:23:35;;;;;;;13.75;4.85;;;7.50;99.90;;;;;;5093692;28;20032;-77
2023/12/03 10:26:11;;;;;;;14.10;4.55;;;7.60;99.90;;;;;;5097175;28;20035;-77
2023/12/03 10:28:37;;;;;;;12.70;4.55;;;7.60;99.90;;;;;;5106147;28;20088;-77
2023/12/03 10:31:03;;;;;;;14.73;5.20;;;7.60;99.90;;;;;;5097991;28;20206;-77
2023/12/03 10:33:29;;;;;;;15.82;4.18;;;7.60;99.90;;;;;;5095575;28;20074;-77
2023/12/03 10:36:04;;;;;;;12.38;4.25;;;7.60;99.90;;;;;;5096411;28;20035;-76
2023/12/03 10:38:38;;;;;;;;;;;7.70;99.90;;;;;;5094988;28;20035;-76
2023/12/03 10:41:07;;;;;;;10.85;3.30;;;7.70;99.90;;;;;;5099309;28;19908;-77
2023/12/03 10:43:36;;;;;;;8.82;2.53;;;7.70;99.90;;;;;;5097486;28;20111;-76
2023/12/03 10:46:04;;;;;;;7.65;2.42;;;7.70;99.90;;;;;;5097145;28;20449;-77
2023/12/03 10:48:33;;;;;;;7.10;2.10;;;7.60;99.90;;;;;;5094617;28;20059;-76
2023/12/03 10:51:04;;;;;;;7.28;2.13;;;7.60;99.90;;;;;;5091240;28;20031;-76
2023/12/03 10:53:31;;;;;;;3.90;2.15;;;7.60;99.90;;;;;;5089523;28;20028;-76
2023/12/03 10:55:57;;;;;;;4.90;1.70;;;7.60;99.90;;;;;;5085793;28;20027;-76
2023/12/03 10:58:25;;;;;;;4.95;1.75;;;7.50;99.90;;;;;;5099063;28;20423;-76
2023/12/03 11:00:59;;;;;;;6.55;1.55;;;7.50;99.90;;;;;;5095784;28;20088;-76
2023/12/03 11:03:32;;;;;;;5.60;1.88;;;7.50;99.90;;;;;;5095415;28;20028;-77
2023/12/03 11:06:01;;;;;;;10.93;2.45;;;7.50;99.90;;;;;;5099436;28;20067;-76
2023/12/03 11:08:28;;;;;;;7.57;2.50;;;7.50;99.90;;;;;;5092741;28;20119;-75
2023/12/03 11:10:54;;;;;;;5.03;2.03;;;7.50;99.90;;;;;;5091877;28;20119;-75
2023/12/03 11:13:23;;;;;;;3.72;1.67;;;7.50;99.90;;;;;;5086954;28;20477;-74
2023/12/03 11:15:50;;;;;;;6.28;1.65;;;7.50;99.90;;;;;;5092474;28;20039;-75
2023/12/03 11:18:19;;;;;;;4.35;1.75;;;7.40;99.90;;;;;;5094273;28;20019;-75
2023/12/03 11:20:47;;;;;;;3.80;1.45;;;7.40;99.90;;;;;;5095167;28;20118;-76
2023/12/03 11:23:33;;;;;;;5.97;2.38;;;7.50;99.90;;;;;;5094067;28;20607;-77
2023/12/03 11:26:07;;;;;;;3.38;1.20;;;7.40;99.90;;;;;;5091173;28;20256;-77
2023/12/03 11:28:34;;;;;;;6.40;1.60;;;7.50;99.90;;;;;;5086994;28;20032;-75
2023/12/03 11:30:59;;;;;;;4.43;1.75;;;7.50;99.90;;;;;;5087556;28;20502;-75
2023/12/03 11:33:27;;;;;;;2.70;1.88;;;7.40;99.90;;;;;;5091552;28;20032;-77
2023/12/03 11:35:53;;;;;;;7.85;2.15;;;7.50;99.90;;;;;;5093395;28;20074;-75
2023/12/03 11:38:19;;;;;;;3.67;1.77;;;7.50;99.90;;;;;;5091256;28;20036;-75
2023/12/03 11:40:45;;;;;;;6.50;2.10;;;7.50;99.90;;;;;;5095940;28;20027;-75
2023/12/03 11:43:28;;;;;;;8.50;1.98;;;7.50;99.90;;;;;;5101558;28;20035;-75
2023/12/03 11:45:54;;;;;;;5.35;2.30;;;7.50;99.90;;;;;;5097651;28;20052;-76
2023/12/03 11:48:22;;;;;;;8.65;2.50;;;7.60;99.90;;;;;;5091262;28;20488;-75
2023/12/03 11:50:49;;;;;;;5.32;2.10;;;7.70;99.90;;;;;;5091894;28;20058;-75
2023/12/03 11:53:16;;;;;;;4.63;2.10;;;7.70;99.90;;;;;;5093902;28;20543;-75
2023/12/03 11:55:48;;;;;;;4.38;2.05;;;7.80;99.90;;;;;;5090361;28;20028;-75
2023/12/03 11:58:14;;;;;;;10.82;3.08;;;7.80;99.90;;;;;;5093979;27;20034;-76
2023/12/03 12:00:41;;;;;;;9.25;2.50;;;7.80;99.90;;;;;;5094411;28;20031;-75
2023/12/03 12:03:08;;;;;;;8.95;2.75;;;7.90;99.90;;;;;;5094757;27;20028;-76
2023/12/03 12:05:43;;;;;;;8.60;2.88;;;7.90;99.90;;;;;;5089596;28;20028;-76
2023/12/03 12:08:09;;;;;;;10.43;2.85;;;7.90;99.90;;;;;;5084539;28;20032;-76
2023/12/03 12:10:35;;;;;;;10.48;3.05;;;7.90;99.90;;;;;;5091838;28;20031;-77
2023/12/03 12:13:03;;;;;;;7.07;2.72;;;7.90;99.90;;;;;;5097789;28;20048;-77
2023/12/03 12:15:29;;;;;;;12.43;3.70;;;7.90;99.90;;;;;;5093957;28;20134;-76
2023/12/03 12:17:55;;;;;;;10.35;3.13;;;7.90;99.90;;;;;;5076578;28;20406;-77
2023/12/03 12:20:23;;;;;;;11.07;3.33;;;8.00;99.90;;;;;;5082765;28;20024;-77
2023/12/03 12:22:50;;;;;;;7.80;2.85;;;8.00;99.90;;;;;;5092982;28;20039;-77
2023/12/03 12:25:16;;;;;;;9.45;3.17;;;8.00;99.90;;;;;;5094851;28;20397;-77
2023/12/03 12:27:42;;;;;;;7.20;2.97;;;8.00;99.90;;;;;;5093040;28;20028;-76
2023/12/03 12:30:08;;;;;;;12.52;3.25;;;8.00;99.90;;;;;;5094429;28;20023;-77
2023/12/03 12:32:34;;;;;;;11.13;2.80;;;8.00;99.90;;;;;;5095976;28;20039;-77
2023/12/03 12:35:02;;;;;;;9.77;3.03;;;8.00;99.90;;;;;;5094079;28;20032;-77
2023/12/03 12:37:27;;;;;;;11.23;2.85;;;8.00;99.90;;;;;;5082662;28;20583;-76
2023/12/03 12:39:53;;;;;;;13.25;2.90;;;8.00;99.90;;;;;;5093591;28;20123;-77